sensor_id;sensor_type;location;lat;lon;timestamp;temperature;humidity
69999;DHT22;57339;52.156;5.372;2024-03-02T00:00:15;9.70;99.90
69999;DHT22;57339;52.156;5.372;2024-03-02T00:02:43;9.70;99.90
69999;DHT22;57339;52.156;5.372;2024-03-02T00:05:12;9.70;99.90
69999;DHT22;57339;52.156;5.372;2024-03-02T00:07:48;9.70;99.90
69999;DHT22;57339;52.156;5.372;2024-03-02T00:10:26;9.70;99.90
69999;DHT22;57339;52.156;5.372;2024-03-02T00:12:53;9.70;99.90
69999;DHT22;57339;52.156;5.372;2024-03-02T00:18:12;9.70;99.90
69999;DHT22;57339;52.156;5.372;2024-03-02T00:20:41;9.70;99.90
69999;DHT22;57339;52.156;5.372;2024-03-02T00:23:09;9.80;99.90
69999;DHT22;57339;52.156;5.372;2024-03-02T00:25:40;9.80;99.90
69999;DHT22;57339;52.156;5.372;2024-03-02T00:28:33;9.80;99.90
69999;DHT22;57339;52.156;5.372;2024-03-02T00:31:11;9.80;99.90
69999;DHT22;57339;52.156;5.372;2024-03-02T00:33:47;9.80;99.90
69999;DHT22;57339;52.156;5.372;2024-03-02T00:36:16;9.80;99.90
69999;DHT22;57339;52.156;5.372;2024-03-02T00:38:50;9.80;99.90
69999;DHT22;57339;52.156;5.372;2024-03-02T00:43:53;9.80;99.90
69999;DHT22;57339;52.156;5.372;2024-03-02T00:46:23;9.70;99.90
69999;DHT22;57339;52.156;5.372;2024-03-02T00:49:01;9.70;99.90
69999;DHT22;57339;52.156;5.372;2024-03-02T00:51:33;9.60;99.90
69999;DHT22;57339;52.156;5.372;2024-03-02T00:54:04;9.50;99.90
69999;DHT22;57339;52.156;5.372;2024-03-02T00:56:32;9.50;99.90
69999;DHT22;57339;52.156;5.372;2024-03-02T00:58:59;9.50;99.90
69999;DHT22;57339;52.156;5.372;2024-03-02T01:01:26;9.40;99.90
69999;DHT22;57339;52.156;5.372;2024-03-02T01:03:53;9.40;99.90
69999;DHT22;57339;52.156;5.372;2024-03-02T01:06:20;9.30;99.90
69999;DHT22;57339;52.156;5.372;2024-03-02T01:08:47;9.20;99.90
69999;DHT22;57339;52.156;5.372;2024-03-02T01:11:14;9.10;99.90
69999;DHT22;57339;52.156;5.372;2024-03-02T01:13:41;9.10;99.90
69999;DHT22;57339;52.156;5.372;2024-03-02T01:16:08;9.00;99.90
69999;DHT22;57339;52.156;5.372;2024-03-02T01:18:35;8.90;99.90
69999;DHT22;57339;52.156;5.372;2024-03-02T01:21:02;8.80;99.90
69999;DHT22;57339;52.156;5.372;2024-03-02T01:23:28;8.70;99.90
69999;DHT22;57339;52.156;5.372;2024-03-02T01:25:55;8.60;99.90
69999;DHT22;57339;52.156;5.372;2024-03-02T01:28:22;8.50;99.90
69999;DHT22;57339;52.156;5.372;2024-03-02T01:30:49;8.50;99.90
69999;DHT22;57339;52.156;5.372;2024-03-02T01:33:17;8.50;99.90
69999;DHT22;57339;52.156;5.372;2024-03-02T01:35:47;8.40;99.90
69999;DHT22;57339;52.156;5.372;2024-03-02T01:38:17;8.40;99.90
69999;DHT22;57339;52.156;5.372;2024-03-02T01:40:44;8.30;99.90
69999;DHT22;57339;52.156;5.372;2024-03-02T01:43:11;8.30;99.90
69999;DHT22;57339;52.156;5.372;2024-03-02T01:45:38;8.20;99.90
69999;DHT22;57339;52.156;5.372;2024-03-02T01:48:06;8.20;99.90
69999;DHT22;57339;52.156;5.372;2024-03-02T01:50:35;8.20;99.90
69999;DHT22;57339;52.156;5.372;2024-03-02T01:53:02;8.20;99.90
69999;DHT22;57339;52.156;5.372;2024-03-02T01:55:30;8.20;99.90
69999;DHT22;57339;52.156;5.372;2024-03-02T01:57:58;8.20;99.90
69999;DHT22;57339;52.156;5.372;2024-03-02T02:00:27;8.20;99.90
69999;DHT22;57339;52.156;5.372;2024-03-02T02:02:55;8.10;99.90
69999;DHT22;57339;52.156;5.372;2024-03-02T02:05:22;8.10;99.90
69999;DHT22;57339;52.156;5.372;2024-03-02T02:07:49;8.10;99.90
69999;DHT22;57339;52.156;5.372;2024-03-02T02:10:16;8.10;99.90
69999;DHT22;57339;52.156;5.372;2024-03-02T02:12:43;8.00;99.90
69999;DHT22;57339;52.156;5.372;2024-03-02T02:15:28;8.00;99.90
69999;DHT22;57339;52.156;5.372;2024-03-02T02:17:57;8.00;99.90
69999;DHT22;57339;52.156;5.372;2024-03-02T02:20:24;8.00;99.90
69999;DHT22;57339;52.156;5.372;2024-03-02T02:25:21;7.90;99.90
69999;DHT22;57339;52.156;5.372;2024-03-02T02:27:48;7.80;99.90
69999;DHT22;57339;52.156;5.372;2024-03-02T02:30:20;7.80;99.90
69999;DHT22;57339;52.156;5.372;2024-03-02T02:32:47;7.70;99.90
69999;DHT22;57339;52.156;5.372;2024-03-02T02:35:17;7.70;99.90
69999;DHT22;57339;52.156;5.372;2024-03-02T02:37:45;7.70;99.90
69999;DHT22;57339;52.156;5.372;2024-03-02T02:40:13;7.60;99.90
69999;DHT22;57339;52.156;5.372;2024-03-02T02:42:43;7.60;99.90
69999;DHT22;57339;52.156;5.372;2024-03-02T02:45:12;7.60;99.90
69999;DHT22;57339;52.156;5.372;2024-03-02T02:47:39;7.60;99.90
69999;DHT22;57339;52.156;5.372;2024-03-02T02:50:09;7.60;99.90
69999;DHT22;57339;52.156;5.372;2024-03-02T02:52:39;7.60;99.90
69999;DHT22;57339;52.156;5.372;2024-03-02T02:55:11;7.60;99.90
69999;DHT22;57339;52.156;5.372;2024-03-02T02:57:42;7.60;99.90
69999;DHT22;57339;52.156;5.372;2024-03-02T03:00:13;7.60;99.90
69999;DHT22;57339;52.156;5.372;2024-03-02T03:02:48;7.60;99.90
69999;DHT22;57339;52.156;5.372;2024-03-02T03:05:17;7.50;99.90
69999;DHT22;57339;52.156;5.372;2024-03-02T03:07:45;7.50;99.90
69999;DHT22;57339;52.156;5.372;2024-03-02T03:10:12;7.50;99.90
69999;DHT22;57339;52.156;5.372;2024-03-02T03:12:42;7.50;99.90
69999;DHT22;57339;52.156;5.372;2024-03-02T03:15:09;7.50;99.90
69999;DHT22;57339;52.156;5.372;2024-03-02T03:17:36;7.50;99.90
69999;DHT22;57339;52.156;5.372;2024-03-02T03:20:04;7.40;99.90
69999;DHT22;57339;52.156;5.372;2024-03-02T03:22:31;7.40;99.90
69999;DHT22;57339;52.156;5.372;2024-03-02T03:24:57;7.40;99.90
69999;DHT22;57339;52.156;5.372;2024-03-02T03:27:25;7.40;99.90
69999;DHT22;57339;52.156;5.372;2024-03-02T03:29:51;7.40;99.90
69999;DHT22;57339;52.156;5.372;2024-03-02T03:32:18;7.40;99.90
69999;DHT22;57339;52.156;5.372;2024-03-02T03:34:45;7.30;99.90
69999;DHT22;57339;52.156;5.372;2024-03-02T03:37:12;7.30;99.90
69999;DHT22;57339;52.156;5.372;2024-03-02T03:39:39;7.30;99.90
69999;DHT22;57339;52.156;5.372;2024-03-02T03:42:06;7.20;99.90
69999;DHT22;57339;52.156;5.372;2024-03-02T03:44:33;7.30;99.90
69999;DHT22;57339;52.156;5.372;2024-03-02T03:47:00;7.20;99.90
69999;DHT22;57339;52.156;5.372;2024-03-02T03:49:27;7.20;99.90
69999;DHT22;57339;52.156;5.372;2024-03-02T03:51:54;7.20;99.90
69999;DHT22;57339;52.156;5.372;2024-03-02T03:54:20;7.20;99.90
69999;DHT22;57339;52.156;5.372;2024-03-02T03:56:47;7.20;99.90
69999;DHT22;57339;52.156;5.372;2024-03-02T03:59:14;7.20;99.90
69999;DHT22;57339;52.156;5.372;2024-03-02T04:01:43;7.30;99.90
69999;DHT22;57339;52.156;5.372;2024-03-02T04:04:10;7.30;99.90
69999;DHT22;57339;52.156;5.372;2024-03-02T04:06:37;7.30;99.90
69999;DHT22;57339;52.156;5.372;2024-03-02T04:09:04;7.30;99.90
69999;DHT22;57339;52.156;5.372;2024-03-02T04:11:31;7.40;99.90
69999;DHT22;57339;52.156;5.372;2024-03-02T04:13:58;7.40;99.90
69999;DHT22;57339;52.156;5.372;2024-03-02T04:16:25;7.40;99.90
69999;DHT22;57339;52.156;5.372;2024-03-02T04:18:52;7.40;99.90
69999;DHT22;57339;52.156;5.372;2024-03-02T04:21:19;7.40;99.90
69999;DHT22;57339;52.156;5.372;2024-03-02T04:23:48;7.50;99.90
69999;DHT22;57339;52.156;5.372;2024-03-02T04:26:15;7.50;99.90
69999;DHT22;57339;52.156;5.372;2024-03-02T04:28:45;7.50;99.90
69999;DHT22;57339;52.156;5.372;2024-03-02T04:31:19;7.50;99.90
69999;DHT22;57339;52.156;5.372;2024-03-02T04:33:49;7.50;99.90
69999;DHT22;57339;52.156;5.372;2024-03-02T04:36:16;7.60;99.90
69999;DHT22;57339;52.156;5.372;2024-03-02T04:38:43;7.60;99.90
69999;DHT22;57339;52.156;5.372;2024-03-02T04:41:10;7.60;99.90
69999;DHT22;57339;52.156;5.372;2024-03-02T04:43:37;7.60;99.90
69999;DHT22;57339;52.156;5.372;2024-03-02T04:46:05;7.60;99.90
69999;DHT22;57339;52.156;5.372;2024-03-02T04:48:32;7.60;99.90
69999;DHT22;57339;52.156;5.372;2024-03-02T04:50:59;7.70;99.90
69999;DHT22;57339;52.156;5.372;2024-03-02T04:53:26;7.60;99.90
69999;DHT22;57339;52.156;5.372;2024-03-02T04:55:53;7.70;99.90
69999;DHT22;57339;52.156;5.372;2024-03-02T04:58:20;7.70;99.90
69999;DHT22;57339;52.156;5.372;2024-03-02T05:00:47;7.70;99.90
69999;DHT22;57339;52.156;5.372;2024-03-02T05:03:14;7.70;99.90
69999;DHT22;57339;52.156;5.372;2024-03-02T05:05:41;7.60;99.90
69999;DHT22;57339;52.156;5.372;2024-03-02T05:08:07;7.70;99.90
69999;DHT22;57339;52.156;5.372;2024-03-02T05:10:34;7.60;99.90
69999;DHT22;57339;52.156;5.372;2024-03-02T05:13:01;7.70;99.90
69999;DHT22;57339;52.156;5.372;2024-03-02T05:15:28;7.70;99.90
69999;DHT22;57339;52.156;5.372;2024-03-02T05:17:55;7.70;99.90
69999;DHT22;57339;52.156;5.372;2024-03-02T05:20:22;7.60;99.90
69999;DHT22;57339;52.156;5.372;2024-03-02T05:22:49;7.70;99.90
69999;DHT22;57339;52.156;5.372;2024-03-02T05:25:16;7.70;99.90
69999;DHT22;57339;52.156;5.372;2024-03-02T05:27:44;7.70;99.90
69999;DHT22;57339;52.156;5.372;2024-03-02T05:30:11;7.70;99.90
69999;DHT22;57339;52.156;5.372;2024-03-02T05:32:41;7.70;99.90
69999;DHT22;57339;52.156;5.372;2024-03-02T05:35:08;7.70;99.90
69999;DHT22;57339;52.156;5.372;2024-03-02T05:37:35;7.70;99.90
69999;DHT22;57339;52.156;5.372;2024-03-02T05:40:01;7.60;99.90
69999;DHT22;57339;52.156;5.372;2024-03-02T05:42:29;7.60;99.90
69999;DHT22;57339;52.156;5.372;2024-03-02T05:44:55;7.60;99.90
69999;DHT22;57339;52.156;5.372;2024-03-02T05:47:22;7.50;99.90
69999;DHT22;57339;52.156;5.372;2024-03-02T05:49:49;7.50;99.90
69999;DHT22;57339;52.156;5.372;2024-03-02T05:52:19;7.40;99.90
69999;DHT22;57339;52.156;5.372;2024-03-02T05:54:45;7.40;99.90
69999;DHT22;57339;52.156;5.372;2024-03-02T05:57:15;7.30;99.90
69999;DHT22;57339;52.156;5.372;2024-03-02T05:59:44;7.30;99.90
69999;DHT22;57339;52.156;5.372;2024-03-02T06:02:11;7.30;99.90
69999;DHT22;57339;52.156;5.372;2024-03-02T06:04:38;7.30;99.90
69999;DHT22;57339;52.156;5.372;2024-03-02T06:07:05;7.30;99.90
69999;DHT22;57339;52.156;5.372;2024-03-02T06:09:32;7.30;99.90
69999;DHT22;57339;52.156;5.372;2024-03-02T06:11:59;7.30;99.90
69999;DHT22;57339;52.156;5.372;2024-03-02T06:14:26;7.30;99.90
69999;DHT22;57339;52.156;5.372;2024-03-02T06:16:53;7.40;99.90
69999;DHT22;57339;52.156;5.372;2024-03-02T06:19:19;7.40;99.90
69999;DHT22;57339;52.156;5.372;2024-03-02T06:21:47;7.40;99.90
69999;DHT22;57339;52.156;5.372;2024-03-02T06:24:14;7.40;99.90
69999;DHT22;57339;52.156;5.372;2024-03-02T06:26:41;7.40;99.90
69999;DHT22;57339;52.156;5.372;2024-03-02T06:29:08;7.40;99.90
69999;DHT22;57339;52.156;5.372;2024-03-02T06:31:34;7.50;99.90
69999;DHT22;57339;52.156;5.372;2024-03-02T06:34:01;7.50;99.90
69999;DHT22;57339;52.156;5.372;2024-03-02T06:36:28;7.50;99.90
69999;DHT22;57339;52.156;5.372;2024-03-02T06:38:55;7.60;99.90
69999;DHT22;57339;52.156;5.372;2024-03-02T06:41:22;7.60;99.90
69999;DHT22;57339;52.156;5.372;2024-03-02T06:43:49;7.60;99.90
69999;DHT22;57339;52.156;5.372;2024-03-02T06:46:15;7.60;99.90
69999;DHT22;57339;52.156;5.372;2024-03-02T06:48:43;7.60;99.90
69999;DHT22;57339;52.156;5.372;2024-03-02T06:51:10;7.60;99.90
69999;DHT22;57339;52.156;5.372;2024-03-02T06:53:37;7.60;99.90
69999;DHT22;57339;52.156;5.372;2024-03-02T06:56:04;7.60;99.90
69999;DHT22;57339;52.156;5.372;2024-03-02T06:58:31;7.60;99.90
69999;DHT22;57339;52.156;5.372;2024-03-02T07:00:58;7.60;99.90
69999;DHT22;57339;52.156;5.372;2024-03-02T07:03:25;7.70;99.90
69999;DHT22;57339;52.156;5.372;2024-03-02T07:05:52;7.70;99.90
69999;DHT22;57339;52.156;5.372;2024-03-02T07:08:19;7.80;99.90
69999;DHT22;57339;52.156;5.372;2024-03-02T07:10:46;7.90;99.90
69999;DHT22;57339;52.156;5.372;2024-03-02T07:13:15;8.00;99.90
69999;DHT22;57339;52.156;5.372;2024-03-02T07:15:41;8.10;99.90
69999;DHT22;57339;52.156;5.372;2024-03-02T07:18:08;8.40;99.90
69999;DHT22;57339;52.156;5.372;2024-03-02T07:20:36;8.60;99.90
69999;DHT22;57339;52.156;5.372;2024-03-02T07:23:03;8.80;99.90
69999;DHT22;57339;52.156;5.372;2024-03-02T07:25:30;8.90;99.90
69999;DHT22;57339;52.156;5.372;2024-03-02T07:27:59;9.10;99.90
69999;DHT22;57339;52.156;5.372;2024-03-02T07:30:27;9.20;99.90
69999;DHT22;57339;52.156;5.372;2024-03-02T07:32:57;9.30;99.90
69999;DHT22;57339;52.156;5.372;2024-03-02T07:35:24;9.40;99.90
69999;DHT22;57339;52.156;5.372;2024-03-02T07:37:50;9.40;99.90
69999;DHT22;57339;52.156;5.372;2024-03-02T07:40:18;9.40;99.90
69999;DHT22;57339;52.156;5.372;2024-03-02T07:42:45;9.30;99.90
69999;DHT22;57339;52.156;5.372;2024-03-02T07:45:12;9.40;99.90
69999;DHT22;57339;52.156;5.372;2024-03-02T07:47:39;9.70;99.90
69999;DHT22;57339;52.156;5.372;2024-03-02T07:50:06;9.60;99.90
69999;DHT22;57339;52.156;5.372;2024-03-02T07:52:33;9.60;99.90
69999;DHT22;57339;52.156;5.372;2024-03-02T07:55:00;9.40;99.90
69999;DHT22;57339;52.156;5.372;2024-03-02T07:57:27;9.40;99.90
69999;DHT22;57339;52.156;5.372;2024-03-02T07:59:54;9.20;99.90
69999;DHT22;57339;52.156;5.372;2024-03-02T08:02:21;9.20;99.90
69999;DHT22;57339;52.156;5.372;2024-03-02T08:04:48;9.20;99.90
69999;DHT22;57339;52.156;5.372;2024-03-02T08:07:15;9.00;99.90
69999;DHT22;57339;52.156;5.372;2024-03-02T08:09:44;9.00;99.90
69999;DHT22;57339;52.156;5.372;2024-03-02T08:12:11;8.70;99.90
69999;DHT22;57339;52.156;5.372;2024-03-02T08:14:37;8.60;99.90
69999;DHT22;57339;52.156;5.372;2024-03-02T08:17:04;8.60;99.90
69999;DHT22;57339;52.156;5.372;2024-03-02T08:19:31;8.60;99.90
69999;DHT22;57339;52.156;5.372;2024-03-02T08:21:58;8.60;99.90
69999;DHT22;57339;52.156;5.372;2024-03-02T08:24:25;8.60;99.90
69999;DHT22;57339;52.156;5.372;2024-03-02T08:26:52;8.60;99.90
69999;DHT22;57339;52.156;5.372;2024-03-02T08:29:19;8.70;99.90
69999;DHT22;57339;52.156;5.372;2024-03-02T08:31:49;8.80;99.90
69999;DHT22;57339;52.156;5.372;2024-03-02T08:34:15;8.90;99.90
69999;DHT22;57339;52.156;5.372;2024-03-02T08:36:47;9.20;99.90
69999;DHT22;57339;52.156;5.372;2024-03-02T08:39:14;9.30;99.90
69999;DHT22;57339;52.156;5.372;2024-03-02T08:41:45;9.60;99.90
69999;DHT22;57339;52.156;5.372;2024-03-02T08:44:14;9.80;99.90
69999;DHT22;57339;52.156;5.372;2024-03-02T08:46:41;10.10;99.90
69999;DHT22;57339;52.156;5.372;2024-03-02T08:49:09;10.10;99.90
69999;DHT22;57339;52.156;5.372;2024-03-02T08:51:36;10.30;99.90
69999;DHT22;57339;52.156;5.372;2024-03-02T08:54:03;10.40;99.90
69999;DHT22;57339;52.156;5.372;2024-03-02T08:56:31;10.60;99.90
69999;DHT22;57339;52.156;5.372;2024-03-02T08:58:58;10.80;99.90
69999;DHT22;57339;52.156;5.372;2024-03-02T09:01:25;10.90;99.90
69999;DHT22;57339;52.156;5.372;2024-03-02T09:03:52;11.00;99.90
69999;DHT22;57339;52.156;5.372;2024-03-02T09:06:19;10.90;99.90
69999;DHT22;57339;52.156;5.372;2024-03-02T09:08:46;11.30;99.90
69999;DHT22;57339;52.156;5.372;2024-03-02T09:11:14;11.40;99.90
69999;DHT22;57339;52.156;5.372;2024-03-02T09:13:41;11.30;99.90
69999;DHT22;57339;52.156;5.372;2024-03-02T09:16:08;11.30;99.90
69999;DHT22;57339;52.156;5.372;2024-03-02T09:18:35;11.30;99.90
69999;DHT22;57339;52.156;5.372;2024-03-02T09:21:02;11.60;99.90
69999;DHT22;57339;52.156;5.372;2024-03-02T09:23:29;11.50;99.90
69999;DHT22;57339;52.156;5.372;2024-03-02T09:25:56;11.80;99.90
69999;DHT22;57339;52.156;5.372;2024-03-02T09:28:23;11.90;99.90
69999;DHT22;57339;52.156;5.372;2024-03-02T09:30:50;12.00;99.90
69999;DHT22;57339;52.156;5.372;2024-03-02T09:33:20;11.90;98.50
69999;DHT22;57339;52.156;5.372;2024-03-02T09:35:47;11.90;97.80
69999;DHT22;57339;52.156;5.372;2024-03-02T09:38:15;11.90;98.30
69999;DHT22;57339;52.156;5.372;2024-03-02T09:40:42;11.90;96.50
69999;DHT22;57339;52.156;5.372;2024-03-02T09:43:09;12.00;97.40
69999;DHT22;57339;52.156;5.372;2024-03-02T09:45:36;12.20;96.90
69999;DHT22;57339;52.156;5.372;2024-03-02T09:48:04;12.20;95.60
69999;DHT22;57339;52.156;5.372;2024-03-02T09:50:31;12.40;95.10
69999;DHT22;57339;52.156;5.372;2024-03-02T09:52:59;12.60;95.10
69999;DHT22;57339;52.156;5.372;2024-03-02T09:55:27;12.70;93.70
69999;DHT22;57339;52.156;5.372;2024-03-02T09:57:54;12.90;93.90
69999;DHT22;57339;52.156;5.372;2024-03-02T10:00:21;13.00;92.70
69999;DHT22;57339;52.156;5.372;2024-03-02T10:02:50;13.40;92.00
69999;DHT22;57339;52.156;5.372;2024-03-02T10:05:25;13.50;89.70
69999;DHT22;57339;52.156;5.372;2024-03-02T10:08:01;13.50;86.80
69999;DHT22;57339;52.156;5.372;2024-03-02T10:10:39;13.40;84.60
69999;DHT22;57339;52.156;5.372;2024-03-02T10:13:07;13.20;85.30
69999;DHT22;57339;52.156;5.372;2024-03-02T10:15:35;13.10;85.10
69999;DHT22;57339;52.156;5.372;2024-03-02T10:18:05;13.30;86.30
69999;DHT22;57339;52.156;5.372;2024-03-02T10:20:35;13.20;83.10
69999;DHT22;57339;52.156;5.372;2024-03-02T10:23:13;13.10;80.00
69999;DHT22;57339;52.156;5.372;2024-03-02T10:25:41;13.10;80.30
69999;DHT22;57339;52.156;5.372;2024-03-02T10:28:20;13.10;80.00
69999;DHT22;57339;52.156;5.372;2024-03-02T10:30:51;13.20;80.00
69999;DHT22;57339;52.156;5.372;2024-03-02T10:33:18;13.00;81.30
69999;DHT22;57339;52.156;5.372;2024-03-02T10:35:50;13.20;81.90
69999;DHT22;57339;52.156;5.372;2024-03-02T10:38:18;13.20;81.00
69999;DHT22;57339;52.156;5.372;2024-03-02T10:40:48;13.50;81.30
69999;DHT22;57339;52.156;5.372;2024-03-02T10:43:15;13.20;77.90
69999;DHT22;57339;52.156;5.372;2024-03-02T10:45:49;13.40;80.30
69999;DHT22;57339;52.156;5.372;2024-03-02T10:48:16;13.50;79.70
69999;DHT22;57339;52.156;5.372;2024-03-02T10:50:45;13.50;79.00
69999;DHT22;57339;52.156;5.372;2024-03-02T10:53:12;13.50;78.70
69999;DHT22;57339;52.156;5.372;2024-03-02T10:55:39;13.50;78.30
69999;DHT22;57339;52.156;5.372;2024-03-02T10:58:06;13.60;76.50
69999;DHT22;57339;52.156;5.372;2024-03-02T11:00:38;13.60;76.20
69999;DHT22;57339;52.156;5.372;2024-03-02T11:03:07;13.70;74.50
69999;DHT22;57339;52.156;5.372;2024-03-02T11:05:36;13.80;74.10
69999;DHT22;57339;52.156;5.372;2024-03-02T11:08:08;13.60;74.00
69999;DHT22;57339;52.156;5.372;2024-03-02T11:10:39;13.90;75.00
69999;DHT22;57339;52.156;5.372;2024-03-02T11:13:12;14.20;72.10
69999;DHT22;57339;52.156;5.372;2024-03-02T11:15:40;14.20;70.70
69999;DHT22;57339;52.156;5.372;2024-03-02T11:18:11;14.30;70.70
69999;DHT22;57339;52.156;5.372;2024-03-02T11:20:42;14.40;71.60
69999;DHT22;57339;52.156;5.372;2024-03-02T11:23:09;14.10;68.50
69999;DHT22;57339;52.156;5.372;2024-03-02T11:25:36;14.20;71.20
69999;DHT22;57339;52.156;5.372;2024-03-02T11:28:05;14.40;69.80
69999;DHT22;57339;52.156;5.372;2024-03-02T11:33:01;14.00;66.70
69999;DHT22;57339;52.156;5.372;2024-03-02T11:35:28;14.00;66.20
69999;DHT22;57339;52.156;5.372;2024-03-02T11:37:55;13.90;66.50
69999;DHT22;57339;52.156;5.372;2024-03-02T11:40:22;14.30;66.70
69999;DHT22;57339;52.156;5.372;2024-03-02T11:42:49;14.60;66.30
69999;DHT22;57339;52.156;5.372;2024-03-02T11:45:22;14.70;65.30
69999;DHT22;57339;52.156;5.372;2024-03-02T11:47:59;14.80;65.20
69999;DHT22;57339;52.156;5.372;2024-03-02T11:50:46;15.00;64.10
69999;DHT22;57339;52.156;5.372;2024-03-02T11:53:14;14.50;63.80
69999;DHT22;57339;52.156;5.372;2024-03-02T11:55:42;14.60;63.70
69999;DHT22;57339;52.156;5.372;2024-03-02T11:58:08;14.50;61.40
69999;DHT22;57339;52.156;5.372;2024-03-02T12:00:36;14.50;61.50
69999;DHT22;57339;52.156;5.372;2024-03-02T12:03:12;14.60;62.00
69999;DHT22;57339;52.156;5.372;2024-03-02T12:05:39;14.90;61.90
69999;DHT22;57339;52.156;5.372;2024-03-02T12:08:07;15.10;62.50
69999;DHT22;57339;52.156;5.372;2024-03-02T12:10:35;15.30;62.10
69999;DHT22;57339;52.156;5.372;2024-03-02T12:13:07;15.30;60.20
69999;DHT22;57339;52.156;5.372;2024-03-02T12:15:35;15.20;60.10
69999;DHT22;57339;52.156;5.372;2024-03-02T12:18:03;15.40;60.40
69999;DHT22;57339;52.156;5.372;2024-03-02T12:20:32;15.50;60.40
69999;DHT22;57339;52.156;5.372;2024-03-02T12:23:01;15.80;60.10
69999;DHT22;57339;52.156;5.372;2024-03-02T12:25:30;15.90;58.70
69999;DHT22;57339;52.156;5.372;2024-03-02T12:28:00;15.70;56.60
69999;DHT22;57339;52.156;5.372;2024-03-02T12:30:30;15.60;56.40
69999;DHT22;57339;52.156;5.372;2024-03-02T12:32:57;15.40;56.00
69999;DHT22;57339;52.156;5.372;2024-03-02T12:35:24;15.40;57.40
69999;DHT22;57339;52.156;5.372;2024-03-02T12:37:53;15.40;55.10
69999;DHT22;57339;52.156;5.372;2024-03-02T12:40:21;15.10;54.10
69999;DHT22;57339;52.156;5.372;2024-03-02T12:42:51;15.20;55.50
69999;DHT22;57339;52.156;5.372;2024-03-02T12:45:19;15.30;56.50
69999;DHT22;57339;52.156;5.372;2024-03-02T12:47:46;15.50;56.90
69999;DHT22;57339;52.156;5.372;2024-03-02T12:50:14;15.50;56.00
69999;DHT22;57339;52.156;5.372;2024-03-02T12:52:42;15.40;55.90
69999;DHT22;57339;52.156;5.372;2024-03-02T12:55:09;15.40;56.40
69999;DHT22;57339;52.156;5.372;2024-03-02T12:57:36;15.60;56.50
69999;DHT22;57339;52.156;5.372;2024-03-02T13:00:06;15.60;56.90
69999;DHT22;57339;52.156;5.372;2024-03-02T13:02:33;15.80;57.10
69999;DHT22;57339;52.156;5.372;2024-03-02T13:04:59;15.80;57.90
69999;DHT22;57339;52.156;5.372;2024-03-02T13:07:26;15.80;58.30
69999;DHT22;57339;52.156;5.372;2024-03-02T13:09:55;15.60;58.40
69999;DHT22;57339;52.156;5.372;2024-03-02T13:12:24;15.40;58.10
69999;DHT22;57339;52.156;5.372;2024-03-02T13:14:52;15.20;59.30
69999;DHT22;57339;52.156;5.372;2024-03-02T13:17:24;14.90;59.50
69999;DHT22;57339;52.156;5.372;2024-03-02T13:19:56;14.90;60.70
69999;DHT22;57339;52.156;5.372;2024-03-02T13:22:24;15.00;61.80
69999;DHT22;57339;52.156;5.372;2024-03-02T13:24:51;14.90;61.80
69999;DHT22;57339;52.156;5.372;2024-03-02T13:27:19;14.60;61.50
69999;DHT22;57339;52.156;5.372;2024-03-02T13:29:47;14.30;61.80
69999;DHT22;57339;52.156;5.372;2024-03-02T13:32:15;14.20;63.40
69999;DHT22;57339;52.156;5.372;2024-03-02T13:34:43;14.20;63.90
69999;DHT22;57339;52.156;5.372;2024-03-02T13:37:10;14.00;64.50
69999;DHT22;57339;52.156;5.372;2024-03-02T13:39:37;14.10;65.00
69999;DHT22;57339;52.156;5.372;2024-03-02T13:42:04;14.30;65.10
69999;DHT22;57339;52.156;5.372;2024-03-02T13:44:31;14.20;64.00
69999;DHT22;57339;52.156;5.372;2024-03-02T13:47:00;14.40;64.40
69999;DHT22;57339;52.156;5.372;2024-03-02T13:49:27;14.50;63.90
69999;DHT22;57339;52.156;5.372;2024-03-02T13:51:54;14.50;64.20
69999;DHT22;57339;52.156;5.372;2024-03-02T13:54:21;14.50;63.40
69999;DHT22;57339;52.156;5.372;2024-03-02T13:56:47;14.30;63.40
69999;DHT22;57339;52.156;5.372;2024-03-02T13:59:15;14.50;63.70
69999;DHT22;57339;52.156;5.372;2024-03-02T14:01:42;14.70;63.40
69999;DHT22;57339;52.156;5.372;2024-03-02T14:04:09;14.60;63.50
69999;DHT22;57339;52.156;5.372;2024-03-02T14:06:36;14.60;63.20
69999;DHT22;57339;52.156;5.372;2024-03-02T14:09:03;14.60;63.60
69999;DHT22;57339;52.156;5.372;2024-03-02T14:11:30;14.40;63.90
69999;DHT22;57339;52.156;5.372;2024-03-02T14:13:57;14.10;64.30
69999;DHT22;57339;52.156;5.372;2024-03-02T14:16:24;14.00;65.40
69999;DHT22;57339;52.156;5.372;2024-03-02T14:18:51;13.90;65.10
69999;DHT22;57339;52.156;5.372;2024-03-02T14:21:17;13.90;66.10
69999;DHT22;57339;52.156;5.372;2024-03-02T14:23:47;13.80;66.70
69999;DHT22;57339;52.156;5.372;2024-03-02T14:26:16;13.80;67.70
69999;DHT22;57339;52.156;5.372;2024-03-02T14:28:43;13.60;67.80
69999;DHT22;57339;52.156;5.372;2024-03-02T14:31:17;13.70;69.20
69999;DHT22;57339;52.156;5.372;2024-03-02T14:33:44;13.50;68.10
69999;DHT22;57339;52.156;5.372;2024-03-02T14:36:11;13.50;70.20
69999;DHT22;57339;52.156;5.372;2024-03-02T14:38:39;13.60;69.50
69999;DHT22;57339;52.156;5.372;2024-03-02T14:41:06;13.70;69.60
69999;DHT22;57339;52.156;5.372;2024-03-02T14:43:33;13.80;68.50
69999;DHT22;57339;52.156;5.372;2024-03-02T14:45:59;13.90;67.70
69999;DHT22;57339;52.156;5.372;2024-03-02T14:48:27;14.10;67.70
69999;DHT22;57339;52.156;5.372;2024-03-02T14:50:54;14.20;66.50
69999;DHT22;57339;52.156;5.372;2024-03-02T14:53:20;14.40;66.00
69999;DHT22;57339;52.156;5.372;2024-03-02T14:55:47;14.40;64.50
69999;DHT22;57339;52.156;5.372;2024-03-02T14:58:16;14.60;64.60
69999;DHT22;57339;52.156;5.372;2024-03-02T15:00:42;14.70;63.70
69999;DHT22;57339;52.156;5.372;2024-03-02T15:03:09;14.70;64.00
69999;DHT22;57339;52.156;5.372;2024-03-02T15:05:36;14.50;63.60
69999;DHT22;57339;52.156;5.372;2024-03-02T15:08:03;14.30;64.00
69999;DHT22;57339;52.156;5.372;2024-03-02T15:10:31;14.30;64.80
69999;DHT22;57339;52.156;5.372;2024-03-02T15:12:58;14.30;64.40
69999;DHT22;57339;52.156;5.372;2024-03-02T15:15:25;14.40;63.60
69999;DHT22;57339;52.156;5.372;2024-03-02T15:17:52;14.40;63.40
69999;DHT22;57339;52.156;5.372;2024-03-02T15:20:21;14.70;63.20
69999;DHT22;57339;52.156;5.372;2024-03-02T15:22:54;14.70;63.60
69999;DHT22;57339;52.156;5.372;2024-03-02T15:25:21;14.40;62.70
69999;DHT22;57339;52.156;5.372;2024-03-02T15:27:48;14.30;64.60
69999;DHT22;57339;52.156;5.372;2024-03-02T15:30:17;14.30;65.00
69999;DHT22;57339;52.156;5.372;2024-03-02T15:32:46;14.30;66.00
69999;DHT22;57339;52.156;5.372;2024-03-02T15:35:13;14.30;65.70
69999;DHT22;57339;52.156;5.372;2024-03-02T15:37:40;14.20;65.90
69999;DHT22;57339;52.156;5.372;2024-03-02T15:40:08;14.20;65.20
69999;DHT22;57339;52.156;5.372;2024-03-02T15:42:35;13.90;65.90
69999;DHT22;57339;52.156;5.372;2024-03-02T15:45:02;13.80;67.00
69999;DHT22;57339;52.156;5.372;2024-03-02T15:47:30;13.60;67.20
69999;DHT22;57339;52.156;5.372;2024-03-02T15:49:57;13.60;68.60
69999;DHT22;57339;52.156;5.372;2024-03-02T15:52:23;13.50;68.90
69999;DHT22;57339;52.156;5.372;2024-03-02T15:54:50;13.40;69.40